createdAt,value
2019-04-11T00:04:26.163Z,93967.89
2019-04-11T00:09:28.377Z,93962.27
2019-04-11T00:14:30.363Z,93965.36
2019-04-11T00:19:33.570Z,93960.19
2019-04-11T00:24:36.764Z,93964.67
2019-04-11T00:29:39.066Z,93963.87
2019-04-11T00:34:41.018Z,93970.35
2019-04-11T00:39:43.721Z,93960.44
2019-04-11T00:44:47.982Z,93968.91
2019-04-11T00:49:50.447Z,93966.92
2019-04-11T00:54:53.218Z,93964.09
2019-04-11T00:59:56.492Z,93968.57
2019-04-11T01:04:59.248Z,93969.53
2019-04-11T01:10:01.489Z,93963.26
2019-04-11T01:15:07.510Z,93959.45
2019-04-11T01:20:09.669Z,93956.97
2019-04-11T01:25:13.233Z,93958.16
2019-04-11T01:30:20.735Z,93959.98
2019-04-11T01:35:23.509Z,93957.77
2019-04-11T01:40:25.579Z,93960.00
2019-04-11T01:45:27.724Z,93958.54
2019-04-11T01:50:31.073Z,93942.03
2019-04-11T01:55:32.986Z,93948.83
2019-04-11T02:00:36.972Z,93956.05
2019-04-11T02:05:39.124Z,93951.42
2019-04-11T02:10:41.281Z,93951.38
2019-04-11T02:15:44.202Z,93951.77
2019-04-11T02:20:47.310Z,93954.81
2019-04-11T02:25:56.643Z,93957.09
2019-04-11T02:31:00.117Z,93957.67
2019-04-11T02:36:03.230Z,93952.64
2019-04-11T02:41:08.595Z,93958.91
2019-04-11T02:46:20.422Z,93958.58
2019-04-11T02:51:14.680Z,93956.84
2019-04-11T02:56:17.491Z,93953.95
2019-04-11T03:01:21.984Z,93955.44
2019-04-11T03:06:25.835Z,93957.09
2019-04-11T03:11:28.074Z,93955.31
2019-04-11T03:16:42.731Z,93953.67
2019-04-11T03:21:39.123Z,93957.06
2019-04-11T03:26:38.326Z,93952.02
2019-04-11T03:32:17.042Z,93952.91
2019-04-11T03:37:27.319Z,93960.11
2019-04-11T03:42:04.133Z,93973.78
2019-04-11T03:47:11.320Z,93986.57
2019-04-11T03:51:56.613Z,93996.70
2019-04-11T03:56:59.273Z,93997.38
2019-04-11T04:02:01.367Z,93992.76
2019-04-11T04:07:06.794Z,93989.63
2019-04-11T04:12:09.534Z,93996.86
2019-04-11T04:17:33.005Z,93997.67
2019-04-11T04:22:48.079Z,94001.27
2019-04-11T04:27:51.275Z,94005.66
2019-04-11T04:32:54.614Z,94004.14
2019-04-11T04:37:58.840Z,94014.13
2019-04-11T04:43:05.058Z,94017.70
2019-04-11T04:48:11.046Z,94021.64
2019-04-11T04:53:09.302Z,94018.80
2019-04-11T04:58:11.294Z,94019.83
2019-04-11T05:03:13.617Z,94029.87
2019-04-11T05:08:16.555Z,94020.52
2019-04-11T05:13:19.464Z,94027.55
2019-04-11T05:18:21.643Z,94024.53
2019-04-11T05:23:24.059Z,94035.80
2019-04-11T05:28:26.274Z,94030.52
2019-04-11T05:33:29.343Z,94032.78
2019-04-11T05:38:32.802Z,94034.35
2019-04-11T05:43:37.330Z,94038.41
2019-04-11T05:48:41.143Z,94044.64
2019-04-11T05:53:43.771Z,94044.59
2019-04-11T05:58:47.367Z,94040.48
2019-04-11T06:03:52.039Z,94040.42
2019-04-11T06:09:00.362Z,94037.30
2019-04-11T06:14:05.176Z,94032.26
2019-04-11T06:19:16.469Z,94029.47
2019-04-11T06:24:32.609Z,94040.02
2019-04-11T06:29:47.971Z,94033.63
2019-04-11T06:35:08.288Z,94037.86
2019-04-11T06:40:24.894Z,94030.94
2019-04-11T06:45:42.188Z,94025.81
2019-04-11T06:51:01.843Z,94037.75
2019-04-11T06:56:12.518Z,94041.63
2019-04-11T07:01:16.490Z,94044.41
2019-04-11T07:06:21.648Z,94052.28
2019-04-11T07:11:25.611Z,94063.44
2019-04-11T07:16:29.444Z,94058.45
2019-04-11T07:21:33.332Z,94068.17
2019-04-11T07:26:37.491Z,94063.30
2019-04-11T07:31:48.327Z,94069.17
2019-04-11T07:37:10.457Z,94077.72
2019-04-11T07:42:34.172Z,94077.52
2019-04-11T07:47:38.423Z,94087.02
2019-04-11T07:52:42.593Z,94084.84
2019-04-11T07:57:46.902Z,94083.53
2019-04-11T08:02:59.800Z,94080.44
2019-04-11T08:08:13.362Z,94084.03
2019-04-11T08:13:28.950Z,94086.42
2019-04-11T08:18:49.339Z,94085.73
2019-04-11T08:23:54.171Z,94083.39
2019-04-11T08:29:05.052Z,94093.37
2019-04-11T08:34:00.606Z,94098.78
2019-04-11T08:39:04.852Z,94096.31
2019-04-11T08:44:07.783Z,94106.44
2019-04-11T08:49:17.338Z,94111.16
2019-04-11T08:54:36.071Z,94113.30
2019-04-11T08:59:49.379Z,94108.70
2019-04-11T09:05:08.449Z,94112.95
2019-04-11T09:10:10.039Z,94114.00
2019-04-11T09:15:26.629Z,94109.02
2019-04-11T09:20:40.152Z,94116.91
2019-04-11T09:25:54.987Z,94118.38
2019-04-11T09:31:03.593Z,94115.48
2019-04-11T09:36:24.399Z,94117.16
2019-04-11T09:41:45.029Z,94121.36
2019-04-11T09:46:59.122Z,94124.55
2019-04-11T09:52:02.986Z,94124.96
2019-04-11T09:57:10.067Z,94134.90
2019-04-11T10:02:23.348Z,94127.05
2019-04-11T10:07:28.139Z,94128.38
2019-04-11T10:12:48.811Z,94125.41
2019-04-11T10:18:20.134Z,94120.40
2019-04-11T10:23:18.830Z,94131.02
2019-04-11T10:28:35.722Z,94123.31
2019-04-11T10:33:55.463Z,94130.88
2019-04-11T10:39:02.866Z,94120.98
2019-04-11T10:44:07.644Z,94125.59
2019-04-11T10:49:28.446Z,94122.48
2019-04-11T10:54:32.513Z,94126.44
2019-04-11T10:59:36.441Z,94123.96
2019-04-11T11:04:41.012Z,94130.99
2019-04-11T11:09:46.207Z,94125.29
2019-04-11T11:14:56.163Z,94131.81
2019-04-11T11:20:26.702Z,94127.05
2019-04-11T11:25:26.834Z,94134.03
2019-04-11T11:30:47.434Z,94129.86
2019-04-11T11:35:52.081Z,94126.98
2019-04-11T11:40:58.979Z,94122.73
2019-04-11T11:46:03.146Z,94122.41
2019-04-11T11:51:08.716Z,94120.55
2019-04-11T11:56:12.135Z,94120.89
2019-04-11T12:01:16.019Z,94112.27
2019-04-11T12:06:22.255Z,94112.73
2019-04-11T12:11:26.271Z,94113.22
2019-04-11T12:16:30.346Z,94108.34
2019-04-11T12:21:38.857Z,94103.68
2019-04-11T12:26:43.221Z,94106.00
2019-04-11T12:31:48.629Z,94102.36
2019-04-11T12:36:52.960Z,94104.70
2019-04-11T12:41:57.259Z,94100.95
2019-04-11T12:47:01.536Z,94108.94
2019-04-11T12:52:22.688Z,94091.41
2019-04-11T12:57:43.435Z,94079.28
2019-04-11T13:03:01.104Z,94079.08
2019-04-11T13:08:14.422Z,94084.89
2019-04-11T13:13:18.056Z,94077.52
2019-04-11T13:18:22.127Z,94077.23
2019-04-11T13:23:28.599Z,94064.60
2019-04-11T13:28:32.266Z,94060.64
2019-04-11T13:33:34.328Z,94058.59
2019-04-11T13:38:37.615Z,94057.57
2019-04-11T13:43:41.674Z,94065.31
2019-04-11T13:48:48.152Z,94058.41
2019-04-11T13:54:09.149Z,94061.34
2019-04-11T13:59:13.342Z,94059.72
2019-04-11T14:04:22.964Z,94059.91
2019-04-11T14:09:30.566Z,94054.30
2019-04-11T14:14:32.913Z,94046.78
2019-04-11T14:19:54.823Z,94032.52
2019-04-11T14:25:15.537Z,94037.42
2019-04-11T14:30:36.235Z,94029.16
2019-04-11T14:35:40.111Z,94030.86
2019-04-11T14:41:00.976Z,94028.55
2019-04-11T14:45:55.971Z,94022.92
2019-04-11T14:51:02.953Z,94016.92
2019-04-11T14:56:14.105Z,94030.08
2019-04-11T15:01:17.077Z,94018.45
2019-04-11T15:06:21.011Z,94018.34
2019-04-11T15:11:25.003Z,94023.64
2019-04-11T15:16:33.037Z,94023.56
2019-04-11T15:21:49.364Z,94016.02
2019-04-11T15:26:56.689Z,94018.77
2019-04-11T15:32:02.186Z,94018.77
2019-04-11T15:37:21.665Z,94010.91
2019-04-11T15:42:25.610Z,94017.24
2019-04-11T15:47:29.661Z,94016.44
2019-04-11T15:52:32.111Z,94016.38
2019-04-11T15:57:36.221Z,94012.01
2019-04-11T16:02:52.746Z,94016.30
2019-04-11T16:08:01.692Z,94018.63
2019-04-11T16:13:09.015Z,94013.42
2019-04-11T16:18:29.955Z,94010.17
2019-04-11T16:23:34.033Z,94008.53
2019-04-11T16:28:43.945Z,94006.80
2019-04-11T16:33:49.168Z,94011.17
2019-04-11T16:39:08.207Z,94020.03
2019-04-11T16:44:12.597Z,94031.92
2019-04-11T16:49:16.307Z,94028.95
2019-04-11T16:54:18.919Z,94024.19
2019-04-11T16:59:22.846Z,94024.52
2019-04-11T17:04:26.004Z,94021.34
2019-04-11T17:09:33.551Z,94030.73
2019-04-11T17:14:35.778Z,94035.64
2019-04-11T17:19:38.025Z,94043.40
2019-04-11T17:24:40.654Z,94046.98
2019-04-11T17:29:43.596Z,94054.72
2019-04-11T17:34:46.296Z,94067.52
2019-04-11T17:39:48.527Z,94077.67
2019-04-11T17:44:50.825Z,94088.17
2019-04-11T17:49:53.110Z,94097.05
2019-04-11T17:54:55.480Z,94103.11
2019-04-11T17:59:59.104Z,94116.56
2019-04-11T18:05:02.452Z,94113.62
2019-04-11T18:10:06.000Z,94125.75
2019-04-11T18:15:09.685Z,94131.55
2019-04-11T18:20:13.967Z,94134.23
2019-04-11T18:25:16.327Z,94144.20
2019-04-11T18:30:20.900Z,94156.63
2019-04-11T18:35:23.078Z,94165.14
2019-04-11T18:40:25.364Z,94172.18
2019-04-11T18:45:27.667Z,94173.30
2019-04-11T18:50:30.176Z,94174.20
2019-04-11T18:55:32.669Z,94182.55
2019-04-11T19:00:35.805Z,94178.98
2019-04-11T19:05:42.782Z,94192.66
2019-04-11T19:10:45.804Z,94190.28
2019-04-11T19:15:47.627Z,94199.29
2019-04-11T19:20:50.801Z,94202.91
2019-04-11T19:25:53.359Z,94206.16
2019-04-11T19:30:56.770Z,94211.00
2019-04-11T19:35:59.224Z,94210.81
2019-04-11T19:41:02.798Z,94212.59
2019-04-11T19:46:05.249Z,94202.44
2019-04-11T19:51:07.434Z,94175.17
2019-04-11T19:56:14.266Z,94178.09
2019-04-11T20:01:16.589Z,94185.80
2019-04-11T20:06:19.095Z,94186.70
2019-04-11T20:11:21.524Z,94184.56
2019-04-11T20:16:24.099Z,94195.55
2019-04-11T20:21:26.214Z,94191.65
2019-04-11T20:26:28.510Z,94194.52
2019-04-11T20:31:30.675Z,94193.30
2019-04-11T20:36:33.840Z,94200.23
2019-04-11T20:41:36.150Z,94209.81
2019-04-11T20:46:38.434Z,94209.25
2019-04-11T20:51:40.844Z,94220.86
2019-04-11T20:56:43.075Z,94214.00
2019-04-11T21:01:45.605Z,94216.73
2019-04-11T21:06:48.067Z,94184.48
2019-04-11T21:11:50.336Z,94218.55
2019-04-11T21:16:52.629Z,94223.45
2019-04-11T21:21:55.008Z,94225.45
2019-04-11T21:26:59.186Z,94228.84
2019-04-11T21:32:01.673Z,94229.38
2019-04-11T21:37:03.690Z,94229.08
2019-04-11T21:42:06.652Z,94234.02
2019-04-11T21:47:08.959Z,94226.60
2019-04-11T21:52:12.312Z,94227.19
2019-04-11T21:57:15.036Z,94233.78
2019-04-11T22:02:17.548Z,94224.67
2019-04-11T22:07:19.849Z,94232.72
2019-04-11T22:12:21.801Z,94218.48
2019-04-11T22:17:24.040Z,94226.33
2019-04-11T22:22:26.062Z,94225.65
2019-04-11T22:27:28.100Z,94230.61
2019-04-11T22:32:31.297Z,94226.39
2019-04-11T22:37:33.294Z,94225.88
2019-04-11T22:42:35.366Z,94219.64
2019-04-11T22:47:38.379Z,94222.03
2019-04-11T22:52:42.313Z,94219.36
2019-04-11T22:57:44.869Z,94221.69
2019-04-11T23:02:48.979Z,94216.27
2019-04-11T23:07:51.024Z,94208.98
2019-04-11T23:12:53.283Z,94219.36
2019-04-11T23:17:55.297Z,94216.73
2019-04-11T23:22:57.387Z,94213.97
2019-04-11T23:27:59.471Z,94207.87
2019-04-11T23:33:01.781Z,94199.88
2019-04-11T23:38:03.963Z,94204.90
2019-04-11T23:43:07.152Z,94194.83
2019-04-11T23:48:10.510Z,94199.11
2019-04-11T23:53:12.562Z,94207.77
2019-04-11T23:58:14.615Z,94202.55
